Time;durP1;ratioP1;P1;durP2;ratioP2;P2;SDS_P1;SDS_P2;PMS_P1;PMS_P2;Temp;Humidity;BMP_temperature;BMP_pressure;BME280_temperature;BME280_humidity;BME280_pressure;Samples;Min_cycle;Max_cycle;Signal;HPM_P1;HPM_P2
2023/02/21 02:16:36;;;;;;;177.95;165.52;;;;;;;7.43;91.97;101422.41;4910577;29;20051;-72
2023/02/21 02:19:31;;;;;;;172.25;159.25;;;;;;;7.46;91.73;101430.75;4931058;29;20074;-71
2023/02/21 02:22:24;;;;;;;181.80;168.88;;;;;;;7.44;91.86;101432.00;4925183;29;20043;-72
2023/02/21 02:25:03;;;;;;;168.23;155.52;;;;;;;7.49;91.84;101443.59;4924749;29;20111;-72
2023/02/21 02:27:43;;;;;;;173.57;160.50;;;;;;;7.51;91.44;101440.72;4924108;29;20051;-71
2023/02/21 02:30:20;;;;;;;167.35;154.63;;;;;;;7.47;91.54;101436.91;4925302;29;20036;-71
2023/02/21 02:33:27;;;;;;;181.70;168.98;;;;;;;7.46;91.43;101435.28;4929070;29;20039;-73
2023/02/21 02:36:05;;;;;;;182.13;169.30;;;;;;;7.47;91.37;101427.03;4925387;29;20035;-73
2023/02/21 02:38:50;;;;;;;178.43;165.77;;;;;;;7.52;91.40;101434.31;4925805;29;20050;-73
2023/02/21 02:41:22;;;;;;;182.07;169.38;;;;;;;7.48;91.40;101439.31;4926845;29;20123;-72
2023/02/21 02:43:58;;;;;;;171.32;158.35;;;;;;;7.44;91.51;101430.16;4911412;29;20146;-72
2023/02/21 02:46:33;;;;;;;184.13;171.20;;;;;;;7.40;91.43;101429.03;4926600;29;20862;-73
2023/02/21 02:49:04;;;;;;;182.55;169.52;;;;;;;7.44;91.60;101432.00;4926759;29;20433;-73
2023/02/21 02:51:33;;;;;;;167.60;154.23;;;;;;;7.43;91.66;101439.19;4928562;29;20124;-73
2023/02/21 02:54:00;;;;;;;175.00;161.45;;;;;;;7.41;91.81;101432.50;4909057;29;20147;-73
2023/02/21 02:56:28;;;;;;;178.85;166.50;;;;;;;7.43;91.87;101438.41;4928345;29;20118;-73
2023/02/21 02:59:13;;;;;;;175.05;162.77;;;;;;;7.46;91.66;101437.94;4928950;29;20036;-73
2023/02/21 03:02:01;;;;;;;191.48;178.07;;;;;;;7.47;91.39;101434.22;4928584;29;20497;-72
2023/02/21 03:04:57;;;;;;;174.90;160.77;;;;;;;7.47;91.54;101435.03;4928621;29;20122;-72
2023/02/21 03:07:58;;;;;;;174.15;160.57;;;;;;;7.40;91.98;101439.69;4936819;28;20055;-72
2023/02/21 03:10:47;;;;;;;185.05;171.55;;;;;;;7.45;91.68;101436.28;4929443;29;20499;-72
2023/02/21 03:13:35;;;;;;;172.93;159.63;;;;;;;7.35;91.68;101432.38;4941453;28;20127;-73
2023/02/21 03:16:25;;;;;;;169.85;157.07;;;;;;;7.49;91.45;101432.94;4927833;29;20079;-72
2023/02/21 03:18:58;;;;;;;185.27;172.07;;;;;;;7.50;91.28;101428.44;4927815;29;20039;-73
2023/02/21 03:21:29;;;;;;;182.52;169.38;;;;;;;7.41;91.53;101432.50;4943464;29;20039;-73
2023/02/21 03:23:58;;;;;;;182.38;168.85;;;;;;;7.39;91.53;101438.88;4912367;29;20039;-73
2023/02/21 03:26:28;;;;;;;175.23;163.10;;;;;;;7.43;91.57;101447.19;4936034;29;20057;-74
2023/02/21 03:29:01;;;;;;;171.10;157.88;;;;;;;7.36;91.66;101444.63;4944528;28;20111;-73
2023/02/21 03:31:35;;;;;;;181.38;168.63;;;;;;;7.35;91.54;101439.56;4944764;28;20044;-74
2023/02/21 03:34:00;;;;;;;181.32;168.43;;;;;;;7.44;91.35;101440.81;4910659;29;20071;-74
2023/02/21 03:36:27;;;;;;;178.23;165.13;;;;;;;7.29;91.87;101438.63;4943161;29;20149;-75
2023/02/21 03:38:54;;;;;;;173.43;159.95;;;;;;;7.35;91.62;101436.88;4929426;29;20122;-73
2023/02/21 03:41:20;;;;;;;177.50;165.07;;;;;;;7.31;91.67;101439.19;4913895;29;20126;-74
2023/02/21 03:43:46;;;;;;;177.25;164.88;;;;;;;7.36;91.71;101444.63;4928465;29;20038;-72
2023/02/21 03:46:12;;;;;;;184.70;171.50;;;;;;;7.27;91.61;101446.03;4943761;29;20043;-73
2023/02/21 03:48:38;;;;;;;170.70;157.95;;;;;;;7.31;91.60;101441.03;4929453;29;20505;-73
2023/02/21 03:51:13;;;;;;;181.98;169.43;;;;;;;7.33;91.24;101445.13;4927573;29;20047;-76
2023/02/21 03:53:38;;;;;;;175.43;163.43;;;;;;;7.28;91.40;101444.19;4928513;29;20106;-73
2023/02/21 03:56:06;;;;;;;152.48;142.32;;;;;;;7.26;91.85;101455.06;4928844;29;20048;-72
2023/02/21 03:58:46;;;;;;;172.63;159.45;;;;;;;7.32;91.75;101453.34;4903149;29;20050;-74
2023/02/21 04:01:12;;;;;;;173.20;160.90;;;;;;;7.24;91.57;101451.81;4910993;29;20047;-74
2023/02/21 04:03:38;;;;;;;170.40;157.40;;;;;;;7.21;91.60;101457.59;4942922;28;20102;-74
2023/02/21 04:06:04;;;;;;;160.15;149.30;;;;;;;7.20;91.54;101450.66;4942976;29;20391;-74
2023/02/21 04:08:30;;;;;;;180.02;167.35;;;;;;;7.24;91.84;101451.00;4911435;29;20032;-73
2023/02/21 04:10:55;;;;;;;167.27;154.55;;;;;;;7.22;91.62;101445.91;4923163;29;20055;-73
2023/02/21 04:13:25;;;;;;;166.88;154.48;;;;;;;7.22;91.38;101451.22;4931002;29;20035;-73
2023/02/21 04:15:51;;;;;;;167.55;155.07;;;;;;;7.30;91.46;101456.22;4928648;29;20249;-73
2023/02/21 04:18:17;;;;;;;170.57;157.73;;;;;;;7.32;91.50;101448.84;4928137;29;20171;-73
2023/02/21 04:20:46;;;;;;;168.40;155.90;;;;;;;7.24;91.52;101451.81;4909937;29;20040;-73
2023/02/21 04:23:20;;;;;;;180.38;167.75;;;;;;;7.21;91.37;101452.28;4942647;28;20528;-73
2023/02/21 04:25:46;;;;;;;166.80;154.38;;;;;;;7.25;91.43;101463.31;4944216;29;20058;-73
2023/02/21 04:28:17;;;;;;;177.85;165.38;;;;;;;7.21;91.14;101462.94;4943199;28;20086;-73
2023/02/21 04:30:43;;;;;;;180.57;167.93;;;;;;;7.19;91.46;101459.69;4927806;29;20513;-72
2023/02/21 04:33:11;;;;;;;177.98;165.45;;;;;;;7.20;91.28;101458.66;4911387;29;20098;-72
2023/02/21 04:35:36;;;;;;;169.07;156.65;;;;;;;7.08;91.58;101452.50;4943832;28;20039;-72
2023/02/21 04:38:10;;;;;;;174.02;160.95;;;;;;;7.06;91.55;101446.59;4929758;29;20082;-73
2023/02/21 04:40:36;;;;;;;181.50;168.93;;;;;;;7.13;91.36;101449.16;4927926;29;20516;-74
2023/02/21 04:43:02;;;;;;;166.30;154.00;;;;;;;7.08;91.64;101447.16;4929065;29;20056;-73
2023/02/21 04:45:27;;;;;;;168.27;155.82;;;;;;;7.11;91.27;101446.69;4927498;29;20547;-73
2023/02/21 04:47:53;;;;;;;165.60;153.18;;;;;;;7.06;91.70;101446.59;4925713;29;20043;-73
2023/02/21 04:50:19;;;;;;;173.93;161.98;;;;;;;7.12;91.37;101443.00;4910555;29;20058;-73
2023/02/21 04:52:46;;;;;;;168.25;155.48;;;;;;;7.00;91.69;101452.81;4911902;29;20632;-72
2023/02/21 04:55:12;;;;;;;169.43;156.75;;;;;;;7.01;91.71;101459.78;4927042;29;20031;-72
2023/02/21 04:57:37;;;;;;;170.05;157.18;;;;;;;6.95;91.74;101452.69;4926871;29;20181;-72
2023/02/21 05:00:06;;;;;;;179.85;166.90;;;;;;;6.94;91.63;101461.72;4925419;29;20038;-70
2023/02/21 05:02:31;;;;;;;175.10;161.02;;;;;;;7.02;90.96;101453.41;4926761;29;20055;-72
2023/02/21 05:04:57;;;;;;;171.45;158.05;;;;;;;6.86;90.57;101454.88;4943139;28;20584;-72
2023/02/21 05:07:25;;;;;;;177.50;162.95;;;;;;;6.71;90.19;101451.81;4942057;28;20048;-71
2023/02/21 05:09:51;;;;;;;183.93;170.35;;;;;;;6.67;90.50;101456.78;4909766;29;20417;-71
2023/02/21 05:12:16;;;;;;;186.77;172.90;;;;;;;6.64;89.84;101457.25;4928492;29;20036;-74
2023/02/21 05:14:42;;;;;;;181.02;165.50;;;;;;;6.57;90.22;101451.19;4914171;29;20051;-72
2023/02/21 05:17:08;;;;;;;186.25;169.93;;;;;;;6.55;90.33;101455.91;4925415;29;20040;-73
2023/02/21 05:19:34;;;;;;;198.07;183.30;;;;;;;6.52;90.61;101451.06;4912392;29;20043;-72
2023/02/21 05:22:02;;;;;;;199.30;184.00;;;;;;;6.62;90.19;101453.16;4929600;29;20702;-75
2023/02/21 05:24:29;;;;;;;195.25;180.75;;;;;;;6.48;90.73;101457.84;4927307;29;20031;-73
2023/02/21 05:26:55;;;;;;;199.07;184.10;;;;;;;6.53;90.35;101450.81;4944805;28;20058;-73
2023/02/21 05:29:21;;;;;;;182.18;166.70;;;;;;;6.46;89.86;101459.94;4928926;29;20083;-74
2023/02/21 05:31:47;;;;;;;181.57;165.95;;;;;;;6.43;90.45;101455.84;4927170;29;20031;-75
2023/02/21 05:34:14;;;;;;;181.07;165.77;;;;;;;6.43;90.49;101466.50;4918921;29;20038;-74
2023/02/21 05:36:41;;;;;;;190.35;175.18;;;;;;;6.30;90.40;101461.38;4946191;29;20486;-74
2023/02/21 05:39:08;;;;;;;181.52;165.75;;;;;;;6.36;90.36;101468.44;4930914;29;20047;-75
2023/02/21 05:41:34;;;;;;;193.02;177.23;;;;;;;6.28;90.46;101466.06;4917247;29;20146;-73
2023/02/21 05:44:01;;;;;;;181.02;165.10;;;;;;;6.25;90.15;101475.31;4929121;29;20095;-73
2023/02/21 05:46:33;;;;;;;180.60;165.18;;;;;;;6.26;90.17;101484.13;4928799;29;20046;-73
2023/02/21 05:49:01;;;;;;;190.25;174.52;;;;;;;6.26;89.46;101476.13;4928215;29;20067;-73
2023/02/21 05:51:33;;;;;;;191.38;175.32;;;;;;;6.28;89.43;101479.38;4945778;28;20110;-73
2023/02/21 05:53:58;;;;;;;182.93;166.30;;;;;;;6.26;89.24;101479.59;4929706;29;20126;-73
2023/02/21 05:56:24;;;;;;;179.35;163.02;;;;;;;6.21;89.38;101483.97;4945172;28;20479;-74
2023/02/21 05:58:50;;;;;;;179.93;163.27;;;;;;;6.10;90.03;101488.19;4912969;29;20042;-74
2023/02/21 06:01:15;;;;;;;178.75;162.68;;;;;;;6.07;89.40;101477.97;4930173;29;20537;-72
2023/02/21 06:03:41;;;;;;;188.55;172.65;;;;;;;6.13;89.19;101481.59;4945631;29;20683;-72
2023/02/21 06:06:07;;;;;;;182.60;165.48;;;;;;;6.09;89.93;101491.84;4930523;28;20075;-72
2023/02/21 06:08:41;;;;;;;189.05;173.93;;;;;;;6.12;88.87;101502.06;4930615;29;20035;-72
2023/02/21 06:11:07;;;;;;;180.27;164.02;;;;;;;6.04;88.65;101494.38;4929880;29;20038;-72
2023/02/21 06:13:32;;;;;;;178.70;163.02;;;;;;;6.04;88.48;101494.38;4917261;29;20126;-73
2023/02/21 06:15:58;;;;;;;193.13;176.60;;;;;;;5.95;89.08;101507.13;4930210;29;20047;-72
2023/02/21 06:18:24;;;;;;;177.68;161.48;;;;;;;6.11;88.28;101515.59;4930978;29;20027;-72
2023/02/21 06:20:49;;;;;;;176.77;161.35;;;;;;;6.12;88.76;101507.38;4913568;29;20066;-72
2023/02/21 06:23:14;;;;;;;188.15;172.93;;;;;;;6.01;88.49;101518.75;4945707;29;20042;-72
2023/02/21 06:25:40;;;;;;;182.13;165.55;;;;;;;5.99;88.17;101507.53;4930333;29;20040;-72
2023/02/21 06:28:07;;;;;;;190.95;175.20;;;;;;;6.08;87.23;101521.34;4928842;29;20497;-72
2023/02/21 06:30:32;;;;;;;192.65;177.10;;;;;;;6.10;87.71;101530.75;4915252;29;20028;-72
2023/02/21 06:32:58;;;;;;;194.30;178.43;;;;;;;6.06;87.08;101523.41;4930919;29;20508;-72
2023/02/21 06:35:23;;;;;;;181.25;165.15;;;;;;;6.06;88.06;101518.91;4930160;29;20594;-73
2023/02/21 06:37:49;;;;;;;194.02;177.93;;;;;;;6.13;87.38;101538.25;4931455;29;20403;-72
2023/02/21 06:40:15;;;;;;;194.13;178.63;;;;;;;6.08;87.91;101540.75;4930755;29;20524;-74
2023/02/21 06:42:40;;;;;;;193.35;177.68;;;;;;;6.16;86.81;101535.16;4946467;28;20050;-72
2023/02/21 06:45:06;;;;;;;194.38;178.57;;;;;;;6.19;86.65;101542.72;4928822;29;20044;-72
2023/02/21 06:47:32;;;;;;;185.50;167.68;;;;;;;6.16;87.00;101539.66;4937863;29;20439;-72
2023/02/21 06:49:58;;;;;;;193.35;177.93;;;;;;;6.04;87.82;101554.75;4929446;29;20035;-73
2023/02/21 06:52:23;;;;;;;182.75;166.73;;;;;;;6.13;86.96;101546.25;4927738;29;20087;-72
2023/02/21 06:54:51;;;;;;;193.38;176.70;;;;;;;6.18;87.47;101546.41;4912107;29;20151;-72
2023/02/21 06:57:17;;;;;;;181.27;164.60;;;;;;;6.14;87.42;101553.19;4929347;29;20027;-72
2023/02/21 06:59:43;;;;;;;180.90;164.95;;;;;;;6.13;87.67;101550.75;4930201;29;20062;-72
2023/02/21 07:02:17;;;;;;;191.68;174.95;;;;;;;6.14;87.48;101547.06;4912353;29;20480;-73
2023/02/21 07:04:43;;;;;;;182.35;165.93;;;;;;;6.14;87.59;101537.22;4925513;29;20031;-72
2023/02/21 07:07:09;;;;;;;189.38;174.15;;;;;;;6.20;87.28;101540.84;4930926;29;20039;-72
2023/02/21 07:09:34;;;;;;;191.25;175.18;;;;;;;6.17;87.85;101549.28;4928962;29;20044;-73
2023/02/21 07:12:02;;;;;;;183.38;166.25;;;;;;;6.28;87.92;101560.00;4946358;28;20498;-74
2023/02/21 07:14:27;;;;;;;189.90;174.82;;;;;;;6.27;88.08;101555.72;4912218;29;20375;-74
2023/02/21 07:16:53;;;;;;;176.88;160.90;;;;;;;6.38;86.95;101548.84;4914631;29;20045;-74
2023/02/21 07:19:18;;;;;;;189.65;173.70;;;;;;;6.46;86.78;101551.22;4947361;28;20051;-74
2023/02/21 07:21:44;;;;;;;180.45;163.52;;;;;;;6.48;87.20;101558.97;4928079;29;20059;-74
2023/02/21 07:24:10;;;;;;;197.52;181.48;;;;;;;6.48;86.99;101561.63;4931566;29;20046;-73
2023/02/21 07:26:36;;;;;;;192.20;176.35;;;;;;;6.42;86.59;101565.97;4928461;29;20039;-73
2023/02/21 07:29:04;;;;;;;188.13;172.05;;;;;;;6.45;87.45;101556.75;4929160;29;20106;-72
2023/02/21 07:31:29;;;;;;;179.88;164.02;;;;;;;6.46;87.18;101571.69;4912447;29;20130;-73
2023/02/21 07:33:55;;;;;;;187.55;171.93;;;;;;;6.63;87.24;101571.88;4927723;29;20111;-73
2023/02/21 07:36:22;;;;;;;181.40;166.27;;;;;;;6.67;87.58;101573.88;4943977;28;20040;-73
2023/02/21 07:38:48;;;;;;;182.32;165.55;;;;;;;6.69;87.39;101571.81;4913617;29;20043;-73
2023/02/21 07:41:15;;;;;;;195.90;180.38;;;;;;;6.74;86.89;101568.50;4941767;28;20032;-73
2023/02/21 07:43:41;;;;;;;177.52;161.88;;;;;;;6.87;86.53;101580.81;4926401;29;20062;-73
2023/02/21 07:46:15;;;;;;;186.85;171.32;;;;;;;6.87;86.57;101572.84;4925064;29;20051;-73
2023/02/21 07:48:40;;;;;;;181.57;165.25;;;;;;;6.81;86.82;101586.00;4939526;28;20032;-73
2023/02/21 07:51:08;;;;;;;178.18;162.73;;;;;;;6.93;86.74;101587.91;4932440;29;20045;-73
2023/02/21 07:53:33;;;;;;;189.27;174.15;;;;;;;6.96;86.41;101596.25;4928275;29;20042;-73
2023/02/21 07:55:59;;;;;;;176.68;161.05;;;;;;;7.01;86.65;101603.59;4928409;29;20047;-73
2023/02/21 07:58:25;;;;;;;180.88;166.48;;;;;;;7.10;86.17;101600.38;4927239;29;20087;-73
2023/02/21 08:00:51;;;;;;;181.98;167.27;;;;;;;7.13;86.19;101604.44;4911992;29;20043;-74
2023/02/21 08:03:17;;;;;;;176.75;161.25;;;;;;;7.08;86.60;101602.47;4939110;28;20027;-73
2023/02/21 08:05:42;;;;;;;180.95;166.27;;;;;;;7.07;85.73;101600.03;4926848;29;20047;-72
2023/02/21 08:08:09;;;;;;;185.43;170.07;;;;;;;7.00;86.17;101604.63;4924739;29;20036;-73
2023/02/21 08:10:35;;;;;;;186.05;171.02;;;;;;;7.00;86.46;101594.78;4910056;29;20031;-73
2023/02/21 08:13:00;;;;;;;188.38;173.23;;;;;;;7.10;85.36;101605.69;4925019;29;20044;-75
2023/02/21 08:15:26;;;;;;;181.35;165.63;;;;;;;7.12;85.17;101613.50;4912106;29;20043;-73
2023/02/21 08:17:52;;;;;;;176.40;161.43;;;;;;;7.15;86.00;101618.34;4928364;29;20114;-73
2023/02/21 08:20:18;;;;;;;185.43;170.32;;;;;;;7.11;85.34;101622.50;4909135;29;20040;-74
2023/02/21 08:22:44;;;;;;;178.60;163.25;;;;;;;7.25;85.28;101618.63;4926692;29;20556;-74
2023/02/21 08:25:11;;;;;;;180.38;166.10;;;;;;;7.36;82.25;101615.19;4907447;29;20155;-74
2023/02/21 08:27:41;;;;;;;177.73;162.45;;;;;;;7.42;84.62;101615.31;4943744;28;20439;-73
2023/02/21 08:30:08;;;;;;;175.88;160.85;;;;;;;7.54;82.58;101621.50;4926772;29;20044;-74
2023/02/21 08:32:34;;;;;;;182.85;168.35;;;;;;;7.70;83.20;101610.19;4942208;28;20031;-73
2023/02/21 08:35:02;;;;;;;178.48;162.90;;;;;;;7.64;82.56;101629.75;4942316;29;20796;-73
2023/02/21 08:37:31;;;;;;;189.30;174.32;;;;;;;7.70;82.08;101626.19;4925908;29;20035;-73
2023/02/21 08:39:58;;;;;;;179.38;164.18;;;;;;;7.85;79.64;101629.22;4925519;29;20799;-73
2023/02/21 08:42:24;;;;;;;181.60;165.93;;;;;;;7.61;81.83;101633.69;4926374;29;20046;-73
2023/02/21 08:44:50;;;;;;;181.45;167.05;;;;;;;7.66;82.94;101630.34;4941644;28;20494;-74
2023/02/21 08:47:16;;;;;;;174.48;159.32;;;;;;;7.73;80.22;101631.06;4908691;29;20047;-73
2023/02/21 08:49:43;;;;;;;173.90;158.88;;;;;;;7.66;80.99;101638.34;4926772;29;20040;-73
2023/02/21 08:52:09;;;;;;;185.05;169.68;;;;;;;7.55;82.29;101629.28;4941351;28;20520;-73
2023/02/21 08:54:37;;;;;;;175.20;160.90;;;;;;;7.88;82.51;101630.63;4911497;29;20039;-72
2023/02/21 08:57:03;;;;;;;180.15;165.98;;;;;;;8.03;79.10;101627.50;4924431;29;20043;-73
2023/02/21 08:59:32;;;;;;;171.00;156.18;;;;;;;8.21;80.22;101630.06;4926084;29;20426;-74
2023/02/21 09:01:58;;;;;;;171.23;156.52;;;;;;;8.30;79.61;101631.34;4925062;29;20042;-73
2023/02/21 09:04:26;;;;;;;174.52;160.80;;;;;;;8.31;80.36;101634.81;4925199;29;20765;-73
2023/02/21 09:06:53;;;;;;;176.50;161.93;;;;;;;8.46;79.98;101638.66;4927084;29;20457;-73
2023/02/21 09:09:19;;;;;;;173.43;158.75;;;;;;;8.43;80.50;101639.16;4932336;29;20047;-73
2023/02/21 09:11:48;;;;;;;172.15;157.15;;;;;;;8.52;79.77;101642.25;4930574;29;20027;-74
2023/02/21 09:14:16;;;;;;;169.23;154.77;;;;;;;8.51;79.36;101645.16;4944972;28;20393;-73
2023/02/21 09:16:42;;;;;;;170.23;155.68;;;;;;;8.55;79.07;101657.84;4930080;29;20154;-73
2023/02/21 09:19:08;;;;;;;176.68;162.55;;;;;;;8.48;78.92;101660.63;4928930;29;20131;-73
2023/02/21 09:21:34;;;;;;;177.27;163.20;;;;;;;8.47;79.14;101659.00;4928420;29;20032;-74
2023/02/21 09:24:01;;;;;;;174.23;158.88;;;;;;;8.38;79.57;101659.56;4928628;29;20494;-76
2023/02/21 09:26:30;;;;;;;172.25;157.80;;;;;;;8.46;79.50;101660.03;4913200;29;20085;-74
2023/02/21 09:28:57;;;;;;;176.32;160.30;;;;;;;8.46;78.92;101661.88;4929412;29;20087;-72
2023/02/21 09:31:23;;;;;;;183.05;168.45;;;;;;;8.66;78.50;101664.19;4928600;29;20071;-74
2023/02/21 09:33:49;;;;;;;172.82;157.88;;;;;;;8.61;79.57;101664.09;4927927;29;20437;-73
2023/02/21 09:36:15;;;;;;;177.70;162.93;;;;;;;8.69;79.19;101658.41;4928643;29;20072;-74
2023/02/21 09:38:41;;;;;;;171.60;157.35;;;;;;;8.65;78.71;101683.94;4913358;29;20051;-73
2023/02/21 09:41:10;;;;;;;173.93;159.05;;;;;;;8.51;79.22;101664.66;4944675;28;20049;-74
2023/02/21 09:43:38;;;;;;;179.32;165.18;;;;;;;8.59;78.99;101671.50;4930892;29;20028;-74
2023/02/21 09:46:09;;;;;;;182.88;168.07;;;;;;;8.58;76.91;101675.22;4927050;29;20046;-73
2023/02/21 09:48:36;;;;;;;171.73;156.75;;;;;;;8.57;78.32;101677.09;4929324;29;20059;-73
2023/02/21 09:51:06;;;;;;;179.63;165.48;;;;;;;8.78;77.43;101686.34;4915394;29;20043;-74
2023/02/21 09:53:37;;;;;;;182.75;168.55;;;;;;;8.93;77.40;101681.34;4913637;29;20043;-73
2023/02/21 09:56:12;;;;;;;143.20;129.67;;;;;;;9.07;78.22;101689.09;4928397;29;20044;-73
2023/02/21 09:58:44;;;;;;;184.23;169.80;;;;;;;9.06;76.77;101690.13;4912127;29;20040;-74
2023/02/21 10:01:27;;;;;;;184.82;170.70;;;;;;;8.88;76.50;101685.78;4911829;29;20050;-73
2023/02/21 10:04:24;;;;;;;181.80;167.32;;;;;;;9.10;76.59;101696.66;4927577;29;20070;-73
2023/02/21 10:06:58;;;;;;;180.18;165.68;;;;;;;9.26;76.61;101699.38;4913031;29;20055;-73
2023/02/21 10:09:51;;;;;;;169.82;155.50;;;;;;;9.21;74.83;101693.94;4927968;29;20461;-74
2023/02/21 10:12:57;;;;;;;176.80;161.35;;;;;;;9.12;74.25;101699.88;4947522;28;20048;-73
2023/02/21 10:15:49;;;;;;;174.30;159.73;;;;;;;8.95;75.23;101692.63;4913885;29;20072;-72
2023/02/21 10:18:31;;;;;;;179.80;164.95;;;;;;;8.93;72.20;101694.69;4926321;29;20544;-73
2023/02/21 10:21:00;;;;;;;172.02;157.60;;;;;;;9.06;74.82;101692.81;4929275;29;20028;-73
2023/02/21 10:23:36;;;;;;;180.95;166.63;;;;;;;9.37;74.78;101700.41;4928250;29;20087;-73
2023/02/21 10:26:09;;;;;;;178.52;164.25;;;;;;;9.23;72.68;101699.88;4928080;29;20041;-74
2023/02/21 10:28:37;;;;;;;172.30;158.20;;;;;;;9.44;72.98;101703.75;4928078;29;20409;-75
2023/02/21 10:31:36;;;;;;;180.27;164.77;;;;;;;9.37;74.28;101704.94;4927791;29;20036;-73
2023/02/21 10:34:06;;;;;;;177.70;163.15;;;;;;;9.17;70.19;101700.00;4916347;28;20047;-74
2023/02/21 10:36:33;;;;;;;176.88;162.55;;;;;;;9.35;72.71;101707.84;4928119;29;20042;-73
2023/02/21 10:39:09;;;;;;;170.30;155.85;;;;;;;9.27;72.88;101711.69;4913273;29;20173;-73
2023/02/21 10:41:39;;;;;;;177.15;163.13;;;;;;;9.41;71.29;101700.72;4943769;28;20058;-72
2023/02/21 10:44:30;;;;;;;172.90;157.93;;;;;;;9.57;71.45;101711.47;4944892;28;20032;-74
2023/02/21 10:47:21;;;;;;;177.75;163.27;;;;;;;9.63;70.86;101714.25;4925403;29;20142;-73
2023/02/21 10:49:59;;;;;;;177.40;163.63;;;;;;;9.53;73.09;101723.69;4928074;29;20297;-73
2023/02/21 10:52:25;;;;;;;176.52;162.80;;;;;;;9.92;70.10;101718.53;4924773;29;20823;-72
2023/02/21 10:54:59;;;;;;;170.35;155.65;;;;;;;9.84;70.32;101717.06;4928325;29;20118;-72
2023/02/21 10:57:26;;;;;;;181.00;166.68;;;;;;;10.16;68.84;101713.00;4927391;29;20402;-72
2023/02/21 10:59:51;;;;;;;171.10;156.70;;;;;;;10.02;69.92;101713.31;4911540;29;20043;-73
2023/02/21 11:02:34;;;;;;;178.35;162.90;;;;;;;10.32;70.84;101710.38;4927174;29;20509;-72
2023/02/21 11:05:14;;;;;;;180.00;165.43;;;;;;;10.01;70.40;101721.59;4944121;28;20091;-72
2023/02/21 11:07:54;;;;;;;171.07;156.68;;;;;;;10.22;70.48;101704.81;4926739;29;20047;-73
2023/02/21 11:10:30;;;;;;;179.98;166.20;;;;;;;10.50;68.53;101703.97;4926114;29;20072;-72
2023/02/21 11:13:06;;;;;;;180.48;166.50;;;;;;;10.19;68.18;101701.84;4927504;29;20036;-73
2023/02/21 11:15:32;;;;;;;182.80;168.27;;;;;;;10.09;69.37;101692.59;4927293;29;20907;-72
2023/02/21 11:18:24;;;;;;;179.82;165.60;;;;;;;10.19;68.98;101701.84;4912050;29;20040;-72
2023/02/21 11:20:52;;;;;;;178.15;164.32;;;;;;;10.14;68.34;101707.91;4926699;29;20051;-73
2023/02/21 11:23:21;;;;;;;179.77;165.93;;;;;;;10.14;68.26;101707.91;4929053;29;20035;-74
2023/02/21 11:25:51;;;;;;;179.05;165.35;;;;;;;10.13;68.35;101708.97;4926602;29;20051;-73
2023/02/21 11:28:21;;;;;;;188.98;173.85;;;;;;;10.13;68.92;101704.44;4913110;29;20043;-74
2023/02/21 11:30:50;;;;;;;188.25;173.80;;;;;;;10.11;69.53;101701.19;4927269;29;20044;-73
2023/02/21 11:33:22;;;;;;;169.30;155.60;;;;;;;10.02;68.81;101705.31;4911235;29;20047;-73
2023/02/21 11:35:50;;;;;;;167.73;153.80;;;;;;;10.24;69.00;101704.63;4930137;29;20043;-72
2023/02/21 11:38:42;;;;;;;170.13;156.32;;;;;;;10.32;69.84;101706.91;4925435;29;20040;-73
2023/02/21 11:41:26;;;;;;;168.88;155.32;;;;;;;10.52;68.10;101701.84;4940686;28;20039;-74
2023/02/21 11:43:53;;;;;;;175.65;161.82;;;;;;;10.53;68.22;101702.66;4928505;29;20374;-75
2023/02/21 11:46:37;;;;;;;169.75;156.48;;;;;;;10.49;69.33;101702.31;4909959;29;20046;-73
2023/02/21 11:49:22;;;;;;;177.80;164.30;;;;;;;10.26;69.53;101700.66;4925946;29;20035;-73
2023/02/21 11:51:56;;;;;;;171.00;157.15;;;;;;;10.03;71.45;101700.78;4926532;29;20090;-73
2023/02/21 11:54:26;;;;;;;178.80;165.05;;;;;;;9.97;71.96;101701.75;4906604;29;20036;-73
2023/02/21 11:57:07;;;;;;;176.32;163.02;;;;;;;10.09;70.81;101699.78;4926918;29;20122;-72
2023/02/21 11:59:57;;;;;;;175.02;161.80;;;;;;;9.77;73.06;101696.84;4923875;29;20130;-73
2023/02/21 12:03:16;;;;;;;175.18;162.13;;;;;;;9.74;73.76;101708.84;4924831;29;20031;-73
2023/02/21 12:06:07;;;;;;;177.25;164.05;;;;;;;9.66;73.27;101700.38;4868336;29;20194;-73
2023/02/21 12:08:37;;;;;;;168.75;155.05;;;;;;;9.65;74.21;101701.44;4870021;29;20044;-73
2023/02/21 12:11:15;;;;;;;172.63;160.10;;;;;;;9.38;75.81;101715.38;4928075;28;20043;-73
2023/02/21 12:14:15;;;;;;;175.52;162.65;;;;;;;9.23;76.78;101707.06;4926123;29;20035;-73
2023/02/21 12:17:29;;;;;;;175.18;162.35;;;;;;;9.14;77.57;101703.13;4926841;29;20059;-73
2023/02/21 12:20:07;;;;;;;165.43;152.60;;;;;;;9.08;78.04;101706.75;4907300;29;20421;-74
2023/02/21 12:23:06;;;;;;;177.93;164.77;;;;;;;9.14;78.62;101711.94;4933318;29;20039;-73
2023/02/21 12:25:59;;;;;;;168.05;154.88;;;;;;;9.15;79.07;101707.44;4924644;29;20442;-73
2023/02/21 12:28:43;;;;;;;176.90;164.25;;;;;;;9.22;79.37;101700.09;4923739;29;20067;-73
2023/02/21 12:31:12;;;;;;;175.05;162.30;;;;;;;9.40;78.33;101705.25;4926533;29;20150;-72
2023/02/21 12:34:17;;;;;;;167.38;154.32;;;;;;;9.68;77.43;101704.44;4928200;29;20031;-73
2023/02/21 12:36:52;;;;;;;173.95;161.40;;;;;;;9.79;77.55;101698.22;4924218;29;20494;-73
2023/02/21 12:39:42;;;;;;;172.40;159.65;;;;;;;9.84;76.75;101708.22;4925162;29;20035;-72
2023/02/21 12:42:30;;;;;;;166.15;152.85;;;;;;;9.49;77.48;101708.38;4945036;28;20090;-72
2023/02/21 12:45:04;;;;;;;170.88;158.85;;;;;;;9.34;77.83;101706.22;4929802;29;20035;-72
2023/02/21 12:47:52;;;;;;;171.57;159.75;;;;;;;9.23;78.38;101696.38;4945442;28;20050;-72
2023/02/21 12:50:34;;;;;;;163.98;151.43;;;;;;;9.22;78.12;101698.25;4928877;29;20118;-73
2023/02/21 12:53:06;;;;;;;170.85;158.35;;;;;;;9.58;76.90;101686.34;4931502;29;20040;-72
2023/02/21 12:55:44;;;;;;;174.43;162.20;;;;;;;9.70;76.85;101699.69;4932524;29;20043;-72
2023/02/21 12:58:28;;;;;;;173.95;161.60;;;;;;;9.77;75.56;101694.19;4944773;28;20071;-72
2023/02/21 13:01:03;;;;;;;164.15;151.88;;;;;;;9.58;75.83;101696.25;4930351;29;20039;-73
2023/02/21 13:03:37;;;;;;;165.13;152.35;;;;;;;9.81;75.51;101701.47;4930354;29;20187;-73
2023/02/21 13:06:17;;;;;;;172.93;160.38;;;;;;;9.83;75.19;101698.56;4929103;29;20044;-73
2023/02/21 13:09:09;;;;;;;165.05;152.48;;;;;;;9.92;74.97;101705.16;4927592;29;20423;-71
2023/02/21 13:11:59;;;;;;;171.37;159.57;;;;;;;9.91;73.79;101706.19;4926814;29;20032;-73
2023/02/21 13:14:32;;;;;;;175.48;162.75;;;;;;;10.11;74.86;101703.88;4929535;29;20688;-73
2023/02/21 13:16:58;;;;;;;168.13;155.18;;;;;;;10.00;73.56;101694.03;4930052;29;20042;-72
2023/02/21 13:19:30;;;;;;;171.25;158.13;;;;;;;9.92;74.59;101693.63;4944451;28;20040;-72
2023/02/21 13:22:09;;;;;;;166.20;153.45;;;;;;;10.09;72.66;101692.59;4943668;28;20370;-73
2023/02/21 13:25:00;;;;;;;182.15;167.15;;;;;;;10.29;73.10;101689.44;4930249;29;20027;-73
2023/02/21 13:28:06;;;;;;;187.00;172.90;;;;;;;10.46;72.35;101697.47;4945753;28;20044;-73
2023/02/21 13:30:45;;;;;;;167.90;154.75;;;;;;;10.50;69.94;101690.59;4921991;28;20075;-73
2023/02/21 13:33:28;;;;;;;166.25;153.38;;;;;;;10.44;71.13;101696.91;4932588;29;20039;-73
2023/02/21 13:35:59;;;;;;;172.52;160.10;;;;;;;10.41;72.42;101697.38;4929646;29;20974;-74
2023/02/21 13:38:28;;;;;;;173.55;161.07;;;;;;;10.36;72.07;101691.94;4931094;29;20042;-74